Time;durP1;ratioP1;P1;durP2;ratioP2;P2;SDS_P1;SDS_P2;PMS_P1;PMS_P2;Temp;Humidity;BMP_temperature;BMP_pressure;BME280_temperature;BME280_humidity;BME280_pressure;Samples;Min_cycle;Max_cycle;Signal;HPM_P1;HPM_P2
2022/07/05 00:00:51;;;;;;;6.30;3.10;;;;;;;17.68;69.76;98902.12;104873;1271;74147;-23
2022/07/05 00:03:20;;;;;;;4.80;3.00;;;;;;;17.50;70.22;98900.50;105077;1271;77102;-23
2022/07/05 00:05:48;;;;;;;5.30;2.20;;;;;;;17.35;71.21;98898.31;105060;1271;74430;-23
2022/07/05 00:08:16;;;;;;;4.40;2.50;;;;;;;17.77;70.70;98898.14;105154;1271;62832;-23
2022/07/05 00:10:43;;;;;;;6.70;3.20;;;;;;;18.21;69.12;98899.48;104967;1271;62069;-23
2022/07/05 00:13:10;;;;;;;4.20;3.40;;;;;;;18.15;68.84;98900.65;104660;1274;74248;-23
2022/07/05 00:15:37;;;;;;;5.50;3.40;;;;;;;17.85;69.85;98898.25;104780;1271;75146;-23
2022/07/05 00:18:05;;;;;;;5.50;3.80;;;;;;;17.57;70.67;98900.96;104783;1271;73136;-24
2022/07/05 00:20:33;;;;;;;4.30;3.50;;;;;;;17.30;71.66;98899.92;104772;1271;62812;-23
2022/07/05 00:23:00;;;;;;;5.60;3.50;;;;;;;17.08;72.47;98898.12;104771;1272;61766;-23
2022/07/05 00:25:29;;;;;;;3.20;2.70;;;;;;;16.96;72.85;98892.91;105055;1271;76652;-23
2022/07/05 00:27:56;;;;;;;3.60;2.60;;;;;;;17.45;71.81;98891.73;105067;1271;75946;-23
2022/07/05 00:30:23;;;;;;;5.90;3.20;;;;;;;17.99;69.88;98890.98;104752;1274;75163;-23
2022/07/05 00:32:51;;;;;;;6.80;3.20;;;;;;;18.07;69.21;98890.80;104958;1271;61885;-23
2022/07/05 00:35:18;;;;;;;4.60;3.30;;;;;;;17.92;69.35;98888.98;104835;1274;61731;-23
2022/07/05 00:37:46;;;;;;;4.30;3.00;;;;;;;17.69;69.94;98889.69;104818;1273;75546;-23
2022/07/05 00:40:13;;;;;;;3.80;3.40;;;;;;;17.46;70.49;98891.52;104932;1271;76763;-23
2022/07/05 00:42:40;;;;;;;9.80;3.90;;;;;;;17.21;71.79;98892.17;104988;1271;75167;-23
2022/07/05 00:45:09;;;;;;;3.50;2.90;;;;;;;17.01;72.55;98892.02;105040;1271;63510;-23
2022/07/05 00:47:36;;;;;;;5.60;3.40;;;;;;;17.35;72.05;98890.42;104895;1271;63081;-23
2022/07/05 00:50:04;;;;;;;5.10;3.10;;;;;;;17.72;70.62;98888.95;105108;1271;76270;-24
2022/07/05 00:52:33;;;;;;;3.80;3.40;;;;;;;17.73;70.68;98886.30;104914;1271;75986;-23
2022/07/05 00:55:00;;;;;;;4.40;3.60;;;;;;;17.59;70.98;98891.54;105069;1271;75294;-23
2022/07/05 00:57:28;;;;;;;4.20;3.80;;;;;;;17.41;71.79;98888.71;105063;1274;60993;-23
2022/07/05 00:59:55;;;;;;;4.40;4.00;;;;;;;17.19;72.31;98896.52;104971;1272;61673;-24
2022/07/05 01:02:23;;;;;;;3.30;3.00;;;;;;;17.02;73.39;98903.33;104796;1271;76262;-23
2022/07/05 01:04:51;;;;;;;5.30;3.30;;;;;;;17.36;72.64;98906.44;104842;1272;75678;-23
2022/07/05 01:07:20;;;;;;;6.80;3.90;;;;;;;17.73;71.03;98905.63;104776;1271;75590;-23
2022/07/05 01:09:47;;;;;;;4.50;3.50;;;;;;;17.74;70.87;98901.02;104638;1272;63075;-23
2022/07/05 01:12:16;;;;;;;6.30;4.00;;;;;;;17.61;71.05;98896.99;104902;1271;61108;-24
2022/07/05 01:14:43;;;;;;;7.60;3.70;;;;;;;17.43;71.38;98893.54;105060;1271;75018;-23
2022/07/05 01:17:11;;;;;;;5.50;3.90;;;;;;;17.24;72.20;98886.41;105054;1271;77323;-23
2022/07/05 01:19:38;;;;;;;5.00;3.10;;;;;;;17.09;73.01;98887.01;104909;1271;75445;-25
2022/07/05 01:22:12;;;;;;;18.90;3.10;;;;;;;17.50;72.10;98891.58;104727;1271;61099;-23
2022/07/05 01:24:39;;;;;;;3.70;3.40;;;;;;;18.02;70.25;98890.95;104654;1271;62871;-23
2022/07/05 01:27:07;;;;;;;4.90;3.50;;;;;;;18.06;69.67;98887.30;105033;1271;75267;-23
2022/07/05 01:29:35;;;;;;;4.20;3.60;;;;;;;17.86;69.89;98888.35;104763;1271;76902;-23
2022/07/05 01:32:02;;;;;;;5.30;4.00;;;;;;;17.64;70.48;98892.45;104927;1274;75768;-23
2022/07/05 01:34:30;;;;;;;4.70;4.10;;;;;;;17.44;70.69;98892.88;104652;1271;61144;-23
2022/07/05 01:36:57;;;;;;;8.30;4.30;;;;;;;17.27;70.73;98897.58;104640;1271;62696;-23
2022/07/05 01:39:25;;;;;;;3.20;2.90;;;;;;;17.15;71.43;98896.02;104892;1271;76593;-23
2022/07/05 01:41:52;;;;;;;4.00;3.00;;;;;;;17.60;71.47;98895.15;104773;1271;76955;-23
2022/07/05 01:44:19;;;;;;;4.80;3.50;;;;;;;18.12;69.90;98899.17;104746;1271;75594;-23
2022/07/05 01:46:47;;;;;;;4.90;3.70;;;;;;;18.13;69.29;98902.02;104761;1271;61061;-23
2022/07/05 01:49:16;;;;;;;4.30;3.90;;;;;;;17.86;69.60;98903.78;104919;1271;62121;-23
2022/07/05 01:51:49;;;;;;;9.90;4.40;;;;;;;17.49;70.91;98906.96;104912;1274;76338;-23
2022/07/05 01:54:18;;;;;;;6.30;4.40;;;;;;;17.16;72.08;98910.09;104864;1272;76913;-24
2022/07/05 01:56:46;;;;;;;4.70;4.10;;;;;;;16.95;72.94;98913.70;105100;1271;73843;-23
2022/07/05 01:59:15;;;;;;;5.10;3.40;;;;;;;16.85;73.46;98911.38;104884;1271;64396;-23
2022/07/05 02:01:43;;;;;;;5.90;3.50;;;;;;;17.33;72.61;98913.42;104794;1272;61637;-23
2022/07/05 02:04:10;;;;;;;4.90;3.80;;;;;;;17.88;70.67;98911.67;104634;1271;75634;-23
2022/07/05 02:06:38;;;;;;;5.40;4.30;;;;;;;17.94;69.91;98909.75;105183;1271;76862;-23
2022/07/05 02:09:07;;;;;;;8.30;4.30;;;;;;;17.75;70.24;98914.20;104897;1271;74017;-23
2022/07/05 02:11:35;;;;;;;9.00;4.40;;;;;;;17.49;70.96;98915.91;104938;1271;61143;-23
2022/07/05 02:14:03;;;;;;;7.30;4.50;;;;;;;17.20;72.11;98913.62;104876;1271;61134;-23
2022/07/05 02:16:33;;;;;;;16.90;4.90;;;;;;;16.98;72.91;98915.73;104918;1271;76540;-23
2022/07/05 02:19:01;;;;;;;4.50;3.10;;;;;;;16.85;73.48;98913.81;104706;1271;76988;-23
2022/07/05 02:21:30;;;;;;;4.80;3.40;;;;;;;17.32;72.84;98912.99;105055;1272;75242;-23
2022/07/05 02:23:58;;;;;;;7.20;3.70;;;;;;;17.81;71.27;98915.29;105130;1271;62326;-23
2022/07/05 02:26:28;;;;;;;4.50;4.00;;;;;;;17.87;70.64;98919.16;104981;1271;62086;-23
2022/07/05 02:28:56;;;;;;;5.60;4.90;;;;;;;17.78;70.95;98923.20;104649;1271;76576;-23
2022/07/05 02:31:23;;;;;;;6.50;5.00;;;;;;;17.72;71.07;98917.05;104963;1271;77004;-25
2022/07/05 02:33:52;;;;;;;9.10;5.40;;;;;;;17.66;71.11;98918.83;105126;1272;75442;-23
2022/07/05 02:36:21;;;;;;;5.50;4.90;;;;;;;17.62;71.10;98914.55;104872;1271;61747;-23
2022/07/05 02:38:49;;;;;;;4.60;3.30;;;;;;;17.54;71.33;98915.79;105009;1271;62449;-23
2022/07/05 02:41:17;;;;;;;4.60;3.90;;;;;;;17.99;71.00;98915.80;104985;1271;76553;-23
2022/07/05 02:43:46;;;;;;;8.30;4.80;;;;;;;18.55;69.05;98917.11;105066;1271;76373;-24
2022/07/05 02:46:14;;;;;;;8.00;5.00;;;;;;;18.71;68.15;98921.26;104897;1271;73465;-23
2022/07/05 02:48:42;;;;;;;5.40;4.90;;;;;;;18.68;68.09;98922.58;104875;1271;62147;-23
2022/07/05 02:51:10;;;;;;;6.00;4.80;;;;;;;18.58;68.43;98921.00;105000;1271;61153;-23
2022/07/05 02:53:38;;;;;;;8.80;4.60;;;;;;;18.52;68.52;98922.43;105123;1271;76534;-23
2022/07/05 02:56:06;;;;;;;7.80;5.70;;;;;;;18.51;68.49;98926.08;105119;1271;76874;-23
2022/07/05 02:58:34;;;;;;;4.20;3.50;;;;;;;18.53;68.69;98922.65;105016;1271;75507;-24
2022/07/05 03:01:01;;;;;;;4.80;3.70;;;;;;;19.12;67.84;98922.77;105072;1271;63059;-23
2022/07/05 03:03:33;;;;;;;5.70;4.00;;;;;;;19.84;65.49;98925.17;105092;1271;62921;-23
2022/07/05 03:06:01;;;;;;;4.60;3.80;;;;;;;20.09;64.58;98920.90;104949;1274;75409;-23
2022/07/05 03:08:29;;;;;;;6.50;5.20;;;;;;;20.08;64.36;98921.55;105067;1271;76708;-23
2022/07/05 03:10:57;;;;;;;6.40;5.30;;;;;;;19.96;64.32;98922.16;105063;1271;75426;-23
2022/07/05 03:13:25;;;;;;;7.70;4.90;;;;;;;19.78;64.83;98922.67;105118;1271;62058;-23
2022/07/05 03:15:52;;;;;;;5.40;4.90;;;;;;;19.66;65.31;98926.61;104763;1272;62343;-23
2022/07/05 03:18:21;;;;;;;12.30;5.30;;;;;;;19.59;65.44;98923.16;105054;1270;76603;-23
2022/07/05 03:20:49;;;;;;;8.10;5.60;;;;;;;19.54;66.29;98923.67;104742;1271;76758;-23
2022/07/05 03:23:17;;;;;;;4.80;3.90;;;;;;;19.55;66.67;98928.80;105110;1271;75462;-23
2022/07/05 03:25:49;;;;;;;5.20;4.20;;;;;;;20.14;65.04;98931.52;105130;1271;63115;-23
2022/07/05 03:28:16;;;;;;;7.00;4.40;;;;;;;20.73;63.37;98927.80;105078;1271;61949;-23
2022/07/05 03:30:44;;;;;;;5.10;4.30;;;;;;;21.03;63.02;98931.89;105079;1271;76743;-23
2022/07/05 03:33:12;;;;;;;6.50;5.00;;;;;;;21.18;62.36;98925.95;105159;1271;76992;-23
2022/07/05 03:35:42;;;;;;;5.30;4.60;;;;;;;21.17;62.32;98928.05;105096;1271;75989;-24
2022/07/05 03:38:11;;;;;;;8.10;5.30;;;;;;;21.10;63.01;98929.69;105081;1271;63098;-24
2022/07/05 03:40:39;;;;;;;5.10;4.60;;;;;;;21.04;63.32;98931.45;105063;1271;61995;-24
2022/07/05 03:43:12;;;;;;;;;;;;;;;20.94;63.68;98934.29;105074;1271;76132;-24
2022/07/05 03:45:40;;;;;;;6.70;4.70;;;;;;;20.77;64.50;98936.75;105121;1271;76941;-24
2022/07/05 03:48:08;;;;;;;6.40;5.40;;;;;;;20.80;64.54;98931.52;104848;1271;74630;-24
2022/07/05 03:50:56;;;;;;;7.40;5.10;;;;;;;20.91;64.52;98931.35;104965;1271;62970;-24
2022/07/05 03:53:23;;;;;;;4.30;3.60;;;;;;;21.07;64.96;98932.04;104767;1271;62661;-24
2022/07/05 03:55:52;;;;;;;6.90;4.40;;;;;;;21.78;63.37;98924.28;104957;1271;76589;-23
2022/07/05 03:58:19;;;;;;;5.00;4.30;;;;;;;22.54;61.64;98921.60;105078;1271;76272;-24
2022/07/05 04:00:48;;;;;;;5.80;4.90;;;;;;;22.94;60.34;98922.08;104940;1271;75338;-24
2022/07/05 04:03:16;;;;;;;6.00;5.10;;;;;;;23.14;59.88;98922.38;104980;1271;61998;-24
2022/07/05 04:05:44;;;;;;;8.50;5.40;;;;;;;23.26;59.59;98925.02;104888;1271;61602;-24
2022/07/05 04:08:12;;;;;;;6.10;5.00;;;;;;;23.39;59.56;98926.89;104854;1271;76532;-23
2022/07/05 04:10:42;;;;;;;7.50;4.90;;;;;;;23.37;59.94;98928.02;104971;1271;77029;-23
2022/07/05 04:13:10;;;;;;;8.00;5.60;;;;;;;23.36;59.80;98929.02;105040;1271;75506;-24
2022/07/05 04:15:38;;;;;;;5.80;5.30;;;;;;;23.30;60.31;98929.95;104792;1271;63124;-24
2022/07/05 04:18:05;;;;;;;7.70;5.20;;;;;;;23.26;60.19;98931.80;104940;1271;63102;-24
2022/07/05 04:20:35;;;;;;;7.20;5.80;;;;;;;23.15;60.92;98937.38;105149;1271;76266;-24
2022/07/05 04:23:04;;;;;;;7.90;5.40;;;;;;;23.17;60.30;98935.45;105059;1271;76882;-24
2022/07/05 04:25:31;;;;;;;6.50;5.60;;;;;;;23.25;60.52;98931.23;104728;1271;75672;-24
2022/07/05 04:28:04;;;;;;;8.00;5.70;;;;;;;23.36;60.44;98934.88;104853;1274;62876;-24
2022/07/05 04:30:33;;;;;;;8.90;5.40;;;;;;;23.50;59.98;98936.84;104821;1271;62699;-23
2022/07/05 04:33:02;;;;;;;7.80;5.10;;;;;;;23.61;59.41;98933.92;104629;1272;76611;-24
2022/07/05 04:35:30;;;;;;;6.80;5.30;;;;;;;23.76;59.10;98937.15;104773;1271;77064;-24
2022/07/05 04:37:58;;;;;;;8.60;5.80;;;;;;;23.89;58.18;98934.20;104749;1271;75162;-24
2022/07/05 04:40:26;;;;;;;5.80;5.20;;;;;;;24.02;57.93;98934.17;104864;1271;61737;-24
2022/07/05 04:42:54;;;;;;;5.80;5.20;;;;;;;24.14;57.87;98936.95;104861;1271;61147;-24
2022/07/05 04:45:22;;;;;;;5.70;5.10;;;;;;;24.24;57.39;98939.83;104739;1271;74668;-24
2022/07/05 04:47:49;;;;;;;5.90;5.30;;;;;;;24.38;57.33;98942.77;104840;1271;77012;-24
2022/07/05 04:50:18;;;;;;;8.90;5.10;;;;;;;24.53;56.78;98944.71;105096;1271;74362;-24
2022/07/05 04:52:46;;;;;;;6.60;5.40;;;;;;;24.68;56.48;98947.04;105016;1271;61083;-24
2022/07/05 04:55:13;;;;;;;6.50;5.00;;;;;;;24.74;56.24;98950.97;105130;1271;62957;-24
2022/07/05 04:57:41;;;;;;;6.80;4.80;;;;;;;24.78;55.83;98954.81;104846;1271;76235;-23
2022/07/05 05:00:09;;;;;;;6.00;5.00;;;;;;;24.90;55.62;98955.16;104855;1271;76999;-24
2022/07/05 05:02:37;;;;;;;147.30;12.10;;;;;;;25.00;55.42;98952.30;104793;1273;75309;-24
2022/07/05 05:05:05;;;;;;;9.10;5.00;;;;;;;25.11;55.25;98950.39;104944;1271;63530;-24
2022/07/05 05:07:32;;;;;;;6.20;5.00;;;;;;;25.21;54.79;98945.77;104655;1271;62003;-24
2022/07/05 05:10:05;;;;;;;5.50;4.60;;;;;;;25.32;54.62;98940.57;104666;1271;76464;-24
2022/07/05 05:12:32;;;;;;;10.20;5.00;;;;;;;25.50;54.30;98939.75;104664;1271;77004;-23
2022/07/05 05:15:00;;;;;;;12.20;4.80;;;;;;;25.60;54.29;98934.45;105055;1271;75376;-24
2022/07/05 05:17:39;;;;;;;4.80;4.40;;;;;;;25.75;53.98;98937.67;105145;1271;61732;-23
2022/07/05 05:20:10;;;;;;;5.50;4.80;;;;;;;26.00;52.98;98933.59;104739;1271;62871;-23
2022/07/05 05:22:38;;;;;;;6.10;4.40;;;;;;;26.11;51.99;98931.94;104775;1271;75878;-22
2022/07/05 05:25:06;;;;;;;7.30;4.30;;;;;;;26.36;52.24;98932.33;104942;1271;76021;-23
2022/07/05 05:27:34;;;;;;;5.40;4.90;;;;;;;26.56;51.20;98929.89;104725;1271;73646;-23
2022/07/05 05:30:01;;;;;;;5.80;4.50;;;;;;;26.61;51.33;98929.20;105075;1271;62004;-23
2022/07/05 05:32:29;;;;;;;8.20;4.80;;;;;;;26.61;50.93;98928.51;104764;1272;61860;-23
2022/07/05 05:34:56;;;;;;;5.60;4.40;;;;;;;26.92;51.66;98930.41;104769;1271;76543;-24
2022/07/05 05:37:23;;;;;;;6.90;4.00;;;;;;;27.23;50.21;98930.75;105068;1271;76780;-24
2022/07/05 05:39:51;;;;;;;5.20;4.30;;;;;;;27.43;49.36;98932.09;105097;1271;74299;-23
2022/07/05 05:42:18;;;;;;;5.70;4.30;;;;;;;27.56;49.77;98932.10;105130;1271;61625;-23
2022/07/05 05:44:45;;;;;;;4.40;4.00;;;;;;;27.66;49.74;98935.27;105012;1271;61019;-23
2022/07/05 05:47:13;;;;;;;8.90;4.30;;;;;;;27.71;48.76;98935.35;104816;1272;75536;-23
2022/07/05 05:49:43;;;;;;;4.60;4.20;;;;;;;27.64;49.00;98934.64;105052;1271;75682;-23
2022/07/05 05:52:11;;;;;;;4.90;4.50;;;;;;;27.62;49.16;98932.41;105076;1271;75113;-23
2022/07/05 05:54:38;;;;;;;4.60;4.20;;;;;;;27.70;49.58;98930.85;104850;1271;61926;-23
2022/07/05 05:57:05;;;;;;;4.60;4.00;;;;;;;27.95;49.09;98929.38;104912;1271;62743;-23
2022/07/05 05:59:33;;;;;;;5.10;4.40;;;;;;;28.18;49.02;98927.48;104815;1272;74571;-23
2022/07/05 06:02:00;;;;;;;4.80;4.40;;;;;;;28.28;48.59;98930.02;104834;1271;76754;-23
2022/07/05 06:04:28;;;;;;;5.90;4.10;;;;;;;28.38;47.92;98924.34;104832;1271;74404;-22
2022/07/05 06:06:55;;;;;;;4.50;3.90;;;;;;;28.57;48.22;98927.14;104909;1274;63010;-22
2022/07/05 06:09:23;;;;;;;5.80;3.90;;;;;;;28.64;47.21;98929.27;104721;1274;61066;-24
2022/07/05 06:11:50;;;;;;;4.60;4.20;;;;;;;28.79;47.50;98930.88;104871;1271;76591;-24
2022/07/05 06:14:17;;;;;;;4.50;4.10;;;;;;;28.80;47.61;98926.64;104964;1274;76830;-22
2022/07/05 06:16:45;;;;;;;6.40;4.20;;;;;;;28.37;47.91;98925.13;104892;1271;75753;-24
2022/07/05 06:19:12;;;;;;;7.70;4.40;;;;;;;28.68;47.98;98925.45;105037;1271;63088;-24
2022/07/05 06:21:40;;;;;;;6.30;3.80;;;;;;;28.85;47.53;98926.39;105033;1271;63025;-22
2022/07/05 06:24:11;;;;;;;5.50;4.40;;;;;;;28.80;47.01;98928.45;105080;1274;76670;-22
2022/07/05 06:26:38;;;;;;;6.20;4.50;;;;;;;28.43;47.83;98925.45;105072;1271;76977;-22
2022/07/05 06:29:08;;;;;;;4.70;3.90;;;;;;;28.84;46.92;98922.89;104742;1271;74982;-24
2022/07/05 06:31:35;;;;;;;5.60;4.20;;;;;;;29.04;46.52;98927.17;104734;1272;61793;-22
2022/07/05 06:34:03;;;;;;;5.50;4.10;;;;;;;29.08;45.45;98931.48;104823;1271;62015;-23
2022/07/05 06:36:30;;;;;;;6.50;4.30;;;;;;;28.86;45.24;98928.16;104932;1271;74641;-23
2022/07/05 06:38:58;;;;;;;5.20;4.70;;;;;;;28.81;46.16;98931.74;105081;1271;77120;-23
2022/07/05 06:41:25;;;;;;;6.20;4.10;;;;;;;28.66;45.38;98929.21;104961;1271;75385;-23
2022/07/05 06:43:52;;;;;;;4.30;3.90;;;;;;;28.71;46.21;98927.69;104704;1271;61961;-23
2022/07/05 06:46:29;;;;;;;54.30;5.90;;;;;;;29.13;45.17;98925.80;104699;1271;62785;-23
2022/07/05 06:48:57;;;;;;;7.20;3.10;;;;;;;28.91;44.98;98930.42;105086;1271;74872;-23
2022/07/05 06:51:24;;;;;;;4.60;3.40;;;;;;;29.24;44.79;98934.14;104985;1274;77006;-23
2022/07/05 06:53:52;;;;;;;12.90;3.80;;;;;;;29.23;44.55;98931.23;105048;1271;74383;-22
2022/07/05 06:56:39;;;;;;;22.20;20.00;;;;;;;28.81;43.82;98926.50;104932;1274;61073;-22
2022/07/05 06:59:27;;;;;;;8.50;7.60;;;;;;;28.80;44.18;98927.60;105081;1271;62594;-22
2022/07/05 07:02:14;;;;;;;4.30;3.90;;;;;;;29.02;44.64;98923.02;105096;1271;76693;-23
2022/07/05 07:04:49;;;;;;;7.60;4.00;;;;;;;28.94;43.69;98922.91;104971;1271;77072;-22
2022/07/05 07:10:23;;;;;;;4.60;3.10;;;;;;;29.04;43.31;98925.61;105050;1271;63082;-24
2022/07/05 07:12:57;;;;;;;3.50;3.20;;;;;;;29.06;43.63;98934.09;105134;1271;63029;-23
2022/07/05 07:15:24;;;;;;;7.10;3.50;;;;;;;29.19;42.48;98932.27;104987;1271;75618;-22
2022/07/05 07:17:52;;;;;;;3.20;2.80;;;;;;;29.21;41.77;98934.65;104794;1271;75889;-23
2022/07/05 07:20:20;;;;;;;4.30;3.00;;;;;;;29.31;41.66;98933.20;105095;1271;74293;-24
2022/07/05 07:22:47;;;;;;;3.40;3.10;;;;;;;29.20;41.24;98933.93;104951;1272;61236;-23
2022/07/05 07:25:15;;;;;;;5.80;3.20;;;;;;;29.44;41.83;98933.63;104941;1271;61182;-24
2022/07/05 07:27:55;;;;;;;3.50;3.20;;;;;;;29.15;41.99;98935.16;104847;1271;76346;-24
2022/07/05 07:30:42;;;;;;;5.70;3.30;;;;;;;29.47;41.34;98940.55;104901;1271;76972;-23
2022/07/05 07:33:11;;;;;;;4.10;3.20;;;;;;;29.26;40.97;98939.20;104959;1271;73679;-24
2022/07/05 07:35:58;;;;;;;4.00;3.60;;;;;;;29.55;41.73;98940.08;104882;1271;63128;-24
2022/07/05 07:38:26;;;;;;;4.90;3.00;;;;;;;29.61;41.17;98939.70;104949;1271;62778;-23
2022/07/05 07:40:53;;;;;;;6.90;4.20;;;;;;;29.56;39.07;98935.23;105019;1271;75512;-23
2022/07/05 07:43:23;;;;;;;5.40;3.40;;;;;;;29.37;40.60;98932.25;105081;1271;77610;-23
2022/07/05 07:45:50;;;;;;;3.10;2.80;;;;;;;29.76;40.59;98938.11;104721;1271;73928;-24
2022/07/05 07:48:18;;;;;;;4.10;3.00;;;;;;;29.36;37.34;98934.71;105103;1271;63349;-23
2022/07/05 07:50:47;;;;;;;4.90;3.10;;;;;;;29.92;38.09;98934.52;105108;1271;62059;-23
2022/07/05 07:53:14;;;;;;;3.10;2.80;;;;;;;29.99;38.78;98938.80;104844;1271;76585;-23
2022/07/05 07:55:42;;;;;;;4.80;3.40;;;;;;;29.57;39.34;98935.58;104769;1270;76994;-23
2022/07/05 07:58:14;;;;;;;4.20;3.80;;;;;;;29.70;38.17;98935.90;105071;1271;73871;-23
2022/07/05 08:00:42;;;;;;;3.90;3.20;;;;;;;30.05;37.98;98936.38;105056;1271;61775;-23
2022/07/05 08:03:10;;;;;;;4.90;2.40;;;;;;;30.57;37.41;98929.20;105115;1271;61058;-23
2022/07/05 08:05:37;;;;;;;3.10;2.80;;;;;;;30.89;37.45;98930.04;105157;1271;76536;-23
2022/07/05 08:08:05;;;;;;;7.30;3.20;;;;;;;30.45;37.55;98929.85;105096;1272;76718;-23
2022/07/05 08:10:32;;;;;;;3.60;3.00;;;;;;;30.39;38.10;98929.44;104987;1271;73952;-22
2022/07/05 08:13:00;;;;;;;3.80;2.90;;;;;;;30.55;37.16;98927.66;104661;1271;368657;-23
2022/07/05 08:15:27;;;;;;;5.60;2.90;;;;;;;30.99;37.24;98921.48;105072;1271;62780;-23
2022/07/05 08:23:27;;;;;;;3.30;3.00;;;;;;;30.96;36.69;98918.52;104760;1271;74406;-23
2022/07/05 08:25:59;;;;;;;3.30;2.90;;;;;;;31.01;36.18;98919.11;104801;1271;61220;-23
2022/07/05 08:28:26;;;;;;;4.70;3.20;;;;;;;31.06;36.21;98917.59;104834;1271;63019;-23
2022/07/05 08:30:54;;;;;;;3.50;2.90;;;;;;;31.15;35.70;98921.27;104738;1271;75478;-23
2022/07/05 08:33:21;;;;;;;5.10;3.00;;;;;;;31.13;35.41;98919.23;104885;1271;76978;-23
2022/07/05 08:35:48;;;;;;;3.20;2.80;;;;;;;30.89;35.80;98918.66;104931;1271;74203;-23
2022/07/05 08:38:16;;;;;;;4.50;3.20;;;;;;;30.66;36.07;98913.05;104772;1271;61045;-23
2022/07/05 08:40:49;;;;;;;3.90;2.90;;;;;;;30.46;37.49;98918.41;104945;1271;62896;-23
2022/07/05 08:43:17;;;;;;;4.60;3.20;;;;;;;30.28;37.48;98918.41;104870;1271;75251;-23
2022/07/05 08:45:44;;;;;;;4.60;3.10;;;;;;;30.18;37.43;98924.35;105140;1271;77040;-23
2022/07/05 08:48:12;;;;;;;10.90;3.50;;;;;;;30.40;37.09;98922.51;104752;1271;74336;-23
2022/07/05 08:50:39;;;;;;;5.10;3.40;;;;;;;30.72;36.82;98923.58;104617;1271;62944;-23
2022/07/05 08:53:07;;;;;;;4.40;3.30;;;;;;;30.52;35.87;98926.95;104592;1274;61684;-23
2022/07/05 08:55:34;;;;;;;11.20;3.20;;;;;;;30.47;36.58;98927.39;104805;1274;75562;-23
2022/07/05 08:58:03;;;;;;;3.30;3.00;;;;;;;30.96;35.13;98930.12;104852;1271;75917;-23
2022/07/05 09:00:31;;;;;;;3.60;3.00;;;;;;;31.39;33.30;98928.02;104973;1271;75510;-23
2022/07/05 09:03:05;;;;;;;4.30;2.90;;;;;;;32.14;33.33;98918.39;105079;1271;63148;-24
2022/07/05 09:05:39;;;;;;;3.80;2.70;;;;;;;32.83;33.70;98919.66;104803;1271;61109;-23
2022/07/05 09:08:06;;;;;;;2.80;2.50;;;;;;;33.34;31.97;98921.25;104672;1271;76480;-23
2022/07/05 09:10:37;;;;;;;3.20;2.90;;;;;;;33.41;31.77;98919.39;104812;1271;76318;-23
2022/07/05 09:13:04;;;;;;;7.50;4.80;;;;;;;32.74;32.11;98911.67;104854;1271;75251;-24
2022/07/05 09:15:32;;;;;;;4.60;3.10;;;;;;;32.21;33.53;98920.82;104592;1271;61765;-24
2022/07/05 09:18:01;;;;;;;3.10;2.70;;;;;;;32.40;33.69;98917.09;104675;1271;62199;-23
2022/07/05 09:20:28;;;;;;;3.20;2.80;;;;;;;32.52;33.39;98915.11;105025;1271;76392;-24
2022/07/05 09:22:57;;;;;;;3.10;2.40;;;;;;;32.73;32.41;98915.36;105061;1274;76451;-24
2022/07/05 09:25:30;;;;;;;3.10;2.60;;;;;;;32.83;33.37;98914.30;104894;1271;75367;-24
2022/07/05 09:27:58;;;;;;;;;;;;;;;32.82;32.57;98910.05;104656;1271;61878;-24
2022/07/05 09:30:31;;;;;;;3.60;2.70;;;;;;;32.91;32.97;98909.49;104908;1271;62887;-24
2022/07/05 09:33:08;;;;;;;3.20;2.80;;;;;;;32.74;32.20;98915.48;104705;1271;76404;-24
2022/07/05 09:35:37;;;;;;;4.70;2.60;;;;;;;32.42;31.81;98912.55;104805;1271;76860;-24
2022/07/05 09:38:06;;;;;;;4.30;2.40;;;;;;;32.94;30.68;98910.61;104812;1271;75520;-24
2022/07/05 09:40:44;;;;;;;3.60;2.40;;;;;;;33.34;30.43;98908.46;104833;1271;62018;-24
2022/07/05 09:43:22;;;;;;;28.90;5.60;;;;;;;33.47;30.52;98906.14;104665;1271;63037;-24
2022/07/05 09:45:54;;;;;;;7.20;3.30;;;;;;;33.85;30.19;98907.73;104776;1271;75575;-24
2022/07/05 09:48:21;;;;;;;32.60;4.40;;;;;;;33.96;30.00;98907.65;104684;1271;77034;-24
2022/07/05 09:51:06;;;;;;;5.30;2.90;;;;;;;33.93;30.04;98908.39;104865;1271;74598;-24
2022/07/05 09:53:55;;;;;;;3.90;2.80;;;;;;;34.11;29.23;98907.89;105094;1271;63088;-24
2022/07/05 09:56:29;;;;;;;4.30;2.70;;;;;;;34.03;28.67;98912.56;104976;1271;61070;-24
2022/07/05 09:59:19;;;;;;;6.60;2.70;;;;;;;34.31;29.79;98912.56;104769;1274;75259;-24
2022/07/05 10:01:48;;;;;;;3.40;2.60;;;;;;;34.86;27.83;98906.86;105123;1271;76048;-24
2022/07/05 10:04:16;;;;;;;3.40;3.10;;;;;;;35.04;26.96;98903.08;104864;1272;75333;-24
2022/07/05 10:06:44;;;;;;;4.90;3.00;;;;;;;34.96;27.16;98901.45;105003;1274;61125;-24
2022/07/05 10:09:14;;;;;;;6.70;2.80;;;;;;;35.49;26.91;98898.89;105090;1271;63121;-24
2022/07/05 10:11:42;;;;;;;32.60;4.90;;;;;;;35.16;28.13;98902.91;105129;1271;76392;-24
2022/07/05 10:14:20;;;;;;;3.10;2.70;;;;;;;34.22;29.12;98909.17;104880;1271;77193;-24
2022/07/05 10:16:55;;;;;;;4.80;2.80;;;;;;;33.36;30.48;98908.81;105074;1271;74337;-24
2022/07/05 10:19:22;;;;;;;3.50;2.80;;;;;;;32.57;31.44;98913.48;104728;1274;61125;-24
2022/07/05 10:21:50;;;;;;;6.20;3.20;;;;;;;32.14;31.81;98911.77;105151;1271;61923;-24
2022/07/05 10:24:38;;;;;;;3.50;2.70;;;;;;;31.69;32.46;98911.61;104765;1271;75354;-24
2022/07/05 10:27:06;;;;;;;10.70;3.30;;;;;;;31.38;32.95;98910.31;104794;1271;77071;-24
2022/07/05 10:29:34;;;;;;;7.30;2.90;;;;;;;31.04;32.51;98901.61;104723;1271;75524;-24
2022/07/05 10:32:02;;;;;;;3.70;3.00;;;;;;;31.69;32.91;98899.54;104755;1271;63172;-23
2022/07/05 10:34:32;;;;;;;35.00;4.30;;;;;;;32.69;31.80;98893.12;104827;1271;61132;-24
2022/07/05 10:37:19;;;;;;;3.40;2.60;;;;;;;33.28;29.07;98891.88;104876;1271;76583;-24
2022/07/05 10:39:46;;;;;;;5.70;2.70;;;;;;;32.61;30.23;98889.67;104779;1271;76974;-23
2022/07/05 10:42:14;;;;;;;7.50;3.00;;;;;;;33.50;29.61;98889.59;104798;1271;75354;-24
2022/07/05 10:44:43;;;;;;;3.50;2.90;;;;;;;34.00;29.20;98888.92;104722;1271;62645;-24
2022/07/05 10:47:14;;;;;;;3.50;2.50;;;;;;;34.02;29.56;98889.23;104864;1271;61157;-24
2022/07/05 10:49:42;;;;;;;21.40;4.50;;;;;;;33.79;29.19;98891.80;104811;1274;76774;-24
2022/07/05 10:52:26;;;;;;;3.90;3.10;;;;;;;33.57;30.53;98894.46;104875;1271;76535;-24
2022/07/05 10:55:22;;;;;;;2.80;2.60;;;;;;;33.24;29.85;98895.02;104514;1271;74033;-24
2022/07/05 10:58:16;;;;;;;4.70;2.40;;;;;;;32.56;30.41;98894.52;104597;1271;62979;-24
2022/07/05 11:00:43;;;;;;;4.90;2.50;;;;;;;32.01;31.57;98891.96;104694;1271;62040;-24
2022/07/05 11:03:36;;;;;;;6.70;2.90;;;;;;;31.73;33.16;98892.77;104925;1271;74502;-24
2022/07/05 11:06:05;;;;;;;5.10;3.20;;;;;;;31.88;31.32;98884.17;104948;1271;76930;-24
2022/07/05 11:08:55;;;;;;;3.20;2.70;;;;;;;31.94;31.60;98886.48;104766;1271;75399;-24
2022/07/05 11:11:33;;;;;;;5.30;3.10;;;;;;;32.32;30.99;98884.27;104945;1271;61200;-24
2022/07/05 11:14:20;;;;;;;52.50;6.20;;;;;;;32.48;30.50;98883.38;105087;1271;61354;-24
2022/07/05 11:17:11;;;;;;;2.80;2.60;;;;;;;32.98;30.00;98878.73;104865;1271;76535;-24
2022/07/05 11:20:05;;;;;;;4.90;2.80;;;;;;;33.33;29.09;98877.00;105062;1271;75978;-24
2022/07/05 11:22:34;;;;;;;5.40;2.70;;;;;;;33.58;29.06;98871.11;104988;1272;75220;-24
2022/07/05 11:25:02;;;;;;;2.90;2.60;;;;;;;33.30;29.46;98868.83;104720;1271;61144;-24
2022/07/05 11:27:32;;;;;;;3.70;3.10;;;;;;;33.21;28.88;98867.27;104756;1271;63074;-24
2022/07/05 11:30:00;;;;;;;3.90;2.60;;;;;;;32.94;28.88;98865.48;104891;1271;76251;-24
2022/07/05 11:32:30;;;;;;;2.90;2.60;;;;;;;33.14;28.47;98858.83;105134;1274;75916;-24
2022/07/05 11:35:19;;;;;;;2.70;2.50;;;;;;;33.40;28.25;98857.54;104927;1271;75358;-24
2022/07/05 11:38:01;;;;;;;2.60;2.40;;;;;;;33.57;27.60;98858.23;105123;1271;63087;-24
2022/07/05 11:40:49;;;;;;;3.90;2.50;;;;;;;33.89;27.89;98853.92;105011;1271;61850;-24
2022/07/05 11:43:28;;;;;;;2.50;2.30;;;;;;;33.92;27.77;98853.52;104803;1271;75334;-24
2022/07/05 11:45:59;;;;;;;37.60;4.70;;;;;;;33.88;28.34;98853.05;104763;1274;77008;-24